ITY1740 LICC-LIRF
Flight info
| Callsign | ITY1740 |
|---|---|
| Flight time | 1h 7m |
| Altitude | 34000 |
| Route | BUDIN DCT DIRED DCT SOR DCT TEA Z803 LAT |
| Aircraft | A320/M-SDE3FGHIRWY/LB1 |
Departure
| Time | 2026-05-04 12:28 |
|---|---|
| Airport | Catania-Fontanarossa Airport (LICC) |
Arrival
| Time | 2026-05-04 13:36 |
|---|---|
| Airport | Rome–Fiumicino Leonardo da Vinci International Airport (LIRF) |
| Time | Latitude | Longitude | Altitude | Speed | Heading |
|---|---|---|---|---|---|
| 2026-05-04 12:08 | 37.46952 | 15.06528 | 32 ft | 0 kts | 18° |
| 2026-05-04 12:20 | 37.46942 | 15.06524 | 32 ft | 2 kts | 18° |
| 2026-05-04 12:21 | 37.46926 | 15.06518 | 32 ft | 2 kts | 18° |
| 2026-05-04 12:21 | 37.46910 | 15.06512 | 32 ft | 2 kts | 18° |
| 2026-05-04 12:21 | 37.46894 | 15.06505 | 30 ft | 2 kts | 18° |
| 2026-05-04 12:21 | 37.46878 | 15.06499 | 30 ft | 2 kts | 18° |
| 2026-05-04 12:22 | 37.46862 | 15.06493 | 29 ft | 2 kts | 353° |
| 2026-05-04 12:22 | 37.46845 | 15.06499 | 32 ft | 2 kts | 319° |
| 2026-05-04 12:22 | 37.46835 | 15.06516 | 32 ft | 2 kts | 284° |
| 2026-05-04 12:22 | 37.46833 | 15.06525 | 34 ft | 0 kts | 268° |
| 2026-05-04 12:24 | 37.46833 | 15.06521 | 34 ft | 4 kts | 268° |
| 2026-05-04 12:25 | 37.46831 | 15.06466 | 34 ft | 6 kts | 268° |
| 2026-05-04 12:25 | 37.46829 | 15.06419 | 34 ft | 4 kts | 266° |
| 2026-05-04 12:25 | 37.46827 | 15.06391 | 34 ft | 3 kts | 264° |
| 2026-05-04 12:25 | 37.46819 | 15.06324 | 36 ft | 8 kts | 262° |
| 2026-05-04 12:26 | 37.46813 | 15.06272 | 37 ft | 4 kts | 262° |
| 2026-05-04 12:26 | 37.46802 | 15.06162 | 40 ft | 25 kts | 264° |
| 2026-05-04 12:26 | 37.46786 | 15.05937 | 41 ft | 26 kts | 264° |
| 2026-05-04 12:26 | 37.46769 | 15.05718 | 44 ft | 25 kts | 266° |
| 2026-05-04 12:27 | 37.46749 | 15.05529 | 42 ft | 17 kts | 243° |
| 2026-05-04 12:27 | 37.46660 | 15.05464 | 46 ft | 15 kts | 180° |
| 2026-05-04 12:27 | 37.46613 | 15.05562 | 43 ft | 12 kts | 96° |
| 2026-05-04 12:27 | 37.46606 | 15.05682 | 41 ft | 20 kts | 91° |
| 2026-05-04 12:28 | 37.46640 | 15.06195 | 39 ft | 96 kts | 83° |
| 2026-05-04 12:28 | 37.46737 | 15.07304 | 44 ft | 154 kts | 87° |
| 2026-05-04 12:28 | 37.46814 | 15.08757 | 425 ft | 178 kts | 88° |
| 2026-05-04 12:28 | 37.46905 | 15.10365 | 997 ft | 196 kts | 85° |
| 2026-05-04 12:29 | 37.47143 | 15.12161 | 1397 ft | 219 kts | 81° |
| 2026-05-04 12:29 | 37.47448 | 15.14147 | 1822 ft | 242 kts | 80° |
| 2026-05-04 12:29 | 37.47784 | 15.16298 | 2469 ft | 255 kts | 80° |
| 2026-05-04 12:29 | 37.48123 | 15.18529 | 3314 ft | 260 kts | 80° |
| 2026-05-04 12:30 | 37.48450 | 15.20729 | 4175 ft | 264 kts | 79° |
| 2026-05-04 12:30 | 37.48776 | 15.22951 | 5105 ft | 265 kts | 79° |
| 2026-05-04 12:30 | 37.49110 | 15.25241 | 6018 ft | 267 kts | 79° |
| 2026-05-04 12:30 | 37.49641 | 15.27481 | 6875 ft | 269 kts | 63° |
| 2026-05-04 12:31 | 37.50693 | 15.29442 | 7611 ft | 276 kts | 45° |
| 2026-05-04 12:31 | 37.52213 | 15.30949 | 8313 ft | 281 kts | 30° |
| 2026-05-04 12:31 | 37.53899 | 15.32245 | 9136 ft | 285 kts | 30° |
| 2026-05-04 12:31 | 37.55592 | 15.33563 | 9987 ft | 288 kts | 30° |
| 2026-05-04 12:32 | 37.57337 | 15.34927 | 10428 ft | 306 kts | 30° |
| 2026-05-04 12:32 | 37.61192 | 15.37941 | 11198 ft | 339 kts | 30° |
| 2026-05-04 12:32 | 37.63209 | 15.39524 | 11892 ft | 344 kts | 30° |
| 2026-05-04 12:33 | 37.65163 | 15.41058 | 12586 ft | 348 kts | 30° |
| 2026-05-04 12:33 | 37.67229 | 15.42681 | 13307 ft | 352 kts | 30° |
| 2026-05-04 12:33 | 37.69408 | 15.44010 | 13988 ft | 354 kts | 17° |
| 2026-05-04 12:33 | 37.71815 | 15.44678 | 14615 ft | 354 kts | 3° |
| 2026-05-04 12:34 | 37.74279 | 15.44631 | 15260 ft | 355 kts | 350° |
| 2026-05-04 12:34 | 37.76672 | 15.43864 | 15900 ft | 355 kts | 338° |
| 2026-05-04 12:34 | 37.78972 | 15.42708 | 16555 ft | 357 kts | 336° |
| 2026-05-04 12:34 | 37.81298 | 15.41533 | 17207 ft | 360 kts | 336° |
| 2026-05-04 12:35 | 37.83606 | 15.40371 | 17849 ft | 362 kts | 337° |
| 2026-05-04 12:35 | 37.85960 | 15.39192 | 18486 ft | 365 kts | 336° |
| 2026-05-04 12:35 | 37.88325 | 15.38007 | 19045 ft | 367 kts | 336° |
| 2026-05-04 12:35 | 37.90705 | 15.36816 | 19627 ft | 368 kts | 336° |
| 2026-05-04 12:36 | 37.93095 | 15.35618 | 20215 ft | 370 kts | 336° |
| 2026-05-04 12:36 | 37.95494 | 15.34410 | 20794 ft | 372 kts | 336° |
| 2026-05-04 12:36 | 37.97904 | 15.33195 | 21350 ft | 374 kts | 336° |
| 2026-05-04 12:36 | 38.00331 | 15.31972 | 21941 ft | 376 kts | 336° |
| 2026-05-04 12:37 | 38.01943 | 15.31159 | 22327 ft | 377 kts | 336° |
| 2026-05-04 12:37 | 38.04389 | 15.29929 | 22903 ft | 378 kts | 335° |
| 2026-05-04 12:37 | 38.06846 | 15.28690 | 23442 ft | 380 kts | 335° |
| 2026-05-04 12:37 | 38.10122 | 15.27037 | 24049 ft | 384 kts | 335° |
| 2026-05-04 12:38 | 38.11808 | 15.26187 | 24328 ft | 385 kts | 335° |
| 2026-05-04 12:38 | 38.14302 | 15.24928 | 24794 ft | 386 kts | 335° |
| 2026-05-04 12:38 | 38.16811 | 15.23659 | 25226 ft | 387 kts | 335° |
| 2026-05-04 12:38 | 38.19290 | 15.22403 | 25651 ft | 389 kts | 335° |
| 2026-05-04 12:39 | 38.21806 | 15.21127 | 26058 ft | 390 kts | 335° |
| 2026-05-04 12:39 | 38.24341 | 15.19844 | 26455 ft | 391 kts | 335° |
| 2026-05-04 12:39 | 38.26879 | 15.18562 | 26837 ft | 393 kts | 335° |
| 2026-05-04 12:39 | 38.29427 | 15.17274 | 27215 ft | 395 kts | 335° |
| 2026-05-04 12:40 | 38.31987 | 15.15976 | 27592 ft | 396 kts | 335° |
| 2026-05-04 12:40 | 38.34554 | 15.14672 | 27964 ft | 397 kts | 335° |
| 2026-05-04 12:40 | 38.37128 | 15.13361 | 28335 ft | 399 kts | 335° |
| 2026-05-04 12:40 | 38.39708 | 15.12046 | 28695 ft | 400 kts | 335° |
| 2026-05-04 12:41 | 38.42272 | 15.10741 | 29038 ft | 401 kts | 335° |
| 2026-05-04 12:41 | 38.44870 | 15.09418 | 29377 ft | 403 kts | 335° |
| 2026-05-04 12:41 | 38.47478 | 15.08085 | 29698 ft | 404 kts | 335° |
| 2026-05-04 12:41 | 38.50094 | 15.06749 | 30017 ft | 405 kts | 335° |
| 2026-05-04 12:42 | 38.52722 | 15.05410 | 30300 ft | 407 kts | 335° |
| 2026-05-04 12:42 | 38.55351 | 15.04070 | 30562 ft | 408 kts | 335° |
| 2026-05-04 12:42 | 38.57997 | 15.02720 | 30824 ft | 408 kts | 335° |
| 2026-05-04 12:42 | 38.60612 | 15.01385 | 31070 ft | 409 kts | 335° |
| 2026-05-04 12:43 | 38.63256 | 15.00032 | 31306 ft | 409 kts | 335° |
| 2026-05-04 12:43 | 38.65900 | 14.98680 | 31645 ft | 407 kts | 335° |
| 2026-05-04 12:43 | 38.68527 | 14.97336 | 31996 ft | 405 kts | 335° |
| 2026-05-04 12:43 | 38.71133 | 14.96000 | 32349 ft | 403 kts | 335° |
| 2026-05-04 12:44 | 38.73730 | 14.94668 | 32704 ft | 400 kts | 334° |
| 2026-05-04 12:44 | 38.76310 | 14.93343 | 33048 ft | 398 kts | 334° |
| 2026-05-04 12:44 | 38.78881 | 14.92018 | 33396 ft | 396 kts | 334° |
| 2026-05-04 12:44 | 38.81399 | 14.90717 | 33737 ft | 394 kts | 334° |
| 2026-05-04 12:45 | 38.83939 | 14.89402 | 34075 ft | 392 kts | 334° |
| 2026-05-04 12:45 | 38.88959 | 14.86806 | 34161 ft | 384 kts | 334° |
| 2026-05-04 12:46 | 38.93906 | 14.84241 | 34165 ft | 382 kts | 334° |
| 2026-05-04 12:46 | 38.98989 | 14.82118 | 34160 ft | 387 kts | 341° |
| 2026-05-04 12:47 | 39.04207 | 14.80543 | 34168 ft | 387 kts | 341° |
| 2026-05-04 12:47 | 39.09468 | 14.78979 | 34166 ft | 387 kts | 341° |
| 2026-05-04 12:48 | 39.14728 | 14.77418 | 34162 ft | 387 kts | 341° |
| 2026-05-04 12:48 | 39.19946 | 14.75859 | 34162 ft | 387 kts | 341° |
| 2026-05-04 12:49 | 39.25194 | 14.74279 | 34162 ft | 387 kts | 341° |
| 2026-05-04 12:49 | 39.30449 | 14.72695 | 34160 ft | 387 kts | 341° |
| 2026-05-04 12:50 | 39.35711 | 14.71118 | 34162 ft | 388 kts | 341° |
| 2026-05-04 12:50 | 39.40949 | 14.69540 | 34159 ft | 388 kts | 341° |
| 2026-05-04 12:51 | 39.46214 | 14.67943 | 34155 ft | 388 kts | 341° |
| 2026-05-04 12:51 | 39.51485 | 14.66348 | 34152 ft | 389 kts | 341° |
| 2026-05-04 12:52 | 39.56730 | 14.64760 | 34153 ft | 390 kts | 341° |
| 2026-05-04 12:52 | 39.62021 | 14.63156 | 34152 ft | 390 kts | 341° |
| 2026-05-04 12:53 | 39.67322 | 14.61542 | 34154 ft | 391 kts | 341° |
| 2026-05-04 12:53 | 39.72594 | 14.59933 | 34155 ft | 391 kts | 340° |
| 2026-05-04 12:54 | 39.77895 | 14.58321 | 34154 ft | 392 kts | 341° |
| 2026-05-04 12:54 | 39.83215 | 14.56699 | 34152 ft | 392 kts | 341° |
| 2026-05-04 12:55 | 39.88542 | 14.55071 | 34155 ft | 393 kts | 340° |
| 2026-05-04 12:55 | 39.93871 | 14.53439 | 34144 ft | 393 kts | 340° |
| 2026-05-04 12:56 | 39.99172 | 14.51810 | 34146 ft | 393 kts | 340° |
| 2026-05-04 12:56 | 40.04510 | 14.50171 | 34147 ft | 394 kts | 340° |
| 2026-05-04 12:57 | 40.09852 | 14.48520 | 34144 ft | 394 kts | 340° |
| 2026-05-04 12:57 | 40.15205 | 14.46876 | 34144 ft | 395 kts | 340° |
| 2026-05-04 12:58 | 40.20534 | 14.45237 | 34151 ft | 396 kts | 340° |
| 2026-05-04 12:58 | 40.25913 | 14.43568 | 34145 ft | 396 kts | 340° |
| 2026-05-04 12:59 | 40.31282 | 14.41903 | 34148 ft | 397 kts | 340° |
| 2026-05-04 12:59 | 40.36647 | 14.40245 | 34142 ft | 398 kts | 340° |
| 2026-05-04 13:00 | 40.42038 | 14.38565 | 34157 ft | 398 kts | 340° |
| 2026-05-04 13:00 | 40.47450 | 14.36879 | 34156 ft | 399 kts | 341° |
| 2026-05-04 13:01 | 40.52868 | 14.35194 | 34146 ft | 400 kts | 341° |
| 2026-05-04 13:01 | 40.58274 | 14.33447 | 34144 ft | 398 kts | 336° |
| 2026-05-04 13:02 | 40.63434 | 14.30878 | 34146 ft | 396 kts | 334° |
| 2026-05-04 13:02 | 40.68563 | 14.28287 | 34141 ft | 397 kts | 334° |
| 2026-05-04 13:03 | 40.73738 | 14.25674 | 34159 ft | 398 kts | 334° |
| 2026-05-04 13:03 | 40.78921 | 14.23051 | 34153 ft | 399 kts | 334° |
| 2026-05-04 13:04 | 40.84114 | 14.20412 | 34152 ft | 400 kts | 334° |
| 2026-05-04 13:04 | 40.89312 | 14.17765 | 34154 ft | 400 kts | 334° |
| 2026-05-04 13:04 | 40.91921 | 14.16438 | 34039 ft | 402 kts | 334° |
| 2026-05-04 13:05 | 40.94500 | 14.15125 | 33702 ft | 400 kts | 334° |
| 2026-05-04 13:05 | 40.97118 | 14.13795 | 33190 ft | 395 kts | 334° |
| 2026-05-04 13:05 | 40.99639 | 14.12508 | 32678 ft | 391 kts | 335° |
| 2026-05-04 13:05 | 41.02168 | 14.11211 | 32163 ft | 388 kts | 335° |
| 2026-05-04 13:06 | 41.04677 | 14.09927 | 31655 ft | 385 kts | 335° |
| 2026-05-04 13:06 | 41.07165 | 14.08652 | 31152 ft | 383 kts | 335° |
| 2026-05-04 13:06 | 41.09675 | 14.07367 | 30646 ft | 380 kts | 336° |
| 2026-05-04 13:06 | 41.12108 | 14.06116 | 30139 ft | 379 kts | 336° |
| 2026-05-04 13:07 | 41.14562 | 14.04853 | 29615 ft | 376 kts | 336° |
| 2026-05-04 13:07 | 41.16981 | 14.03608 | 29409 ft | 367 kts | 336° |
| 2026-05-04 13:07 | 41.19366 | 14.02378 | 29313 ft | 368 kts | 336° |
| 2026-05-04 13:08 | 41.24168 | 13.99906 | 29123 ft | 370 kts | 336° |
| 2026-05-04 13:08 | 41.28650 | 13.96774 | 28942 ft | 364 kts | 317° |
| 2026-05-04 13:08 | 41.30313 | 13.94246 | 28804 ft | 369 kts | 301° |
| 2026-05-04 13:09 | 41.31360 | 13.91064 | 28560 ft | 382 kts | 288° |
| 2026-05-04 13:09 | 41.32172 | 13.87674 | 28304 ft | 386 kts | 288° |
| 2026-05-04 13:09 | 41.32966 | 13.84255 | 27819 ft | 385 kts | 287° |
| 2026-05-04 13:09 | 41.33747 | 13.80852 | 27360 ft | 383 kts | 287° |
| 2026-05-04 13:10 | 41.34523 | 13.77476 | 26928 ft | 380 kts | 287° |
| 2026-05-04 13:10 | 41.35297 | 13.74118 | 26510 ft | 378 kts | 287° |
| 2026-05-04 13:10 | 41.36071 | 13.70782 | 26077 ft | 377 kts | 287° |
| 2026-05-04 13:10 | 41.36845 | 13.67459 | 25659 ft | 374 kts | 287° |
| 2026-05-04 13:11 | 41.37611 | 13.64164 | 25249 ft | 372 kts | 287° |
| 2026-05-04 13:11 | 41.38372 | 13.60881 | 24846 ft | 370 kts | 287° |
| 2026-05-04 13:11 | 41.39128 | 13.57609 | 24448 ft | 368 kts | 287° |
| 2026-05-04 13:11 | 41.39880 | 13.54361 | 24058 ft | 367 kts | 287° |
| 2026-05-04 13:12 | 41.40630 | 13.51117 | 23653 ft | 365 kts | 287° |
| 2026-05-04 13:12 | 41.41372 | 13.47886 | 23188 ft | 363 kts | 287° |
| 2026-05-04 13:12 | 41.42109 | 13.44676 | 22732 ft | 361 kts | 286° |
| 2026-05-04 13:12 | 41.42832 | 13.41522 | 22295 ft | 359 kts | 286° |
| 2026-05-04 13:13 | 41.43558 | 13.38352 | 21854 ft | 357 kts | 286° |
| 2026-05-04 13:13 | 41.44283 | 13.35186 | 21416 ft | 355 kts | 286° |
| 2026-05-04 13:13 | 41.45002 | 13.32052 | 20999 ft | 352 kts | 286° |
| 2026-05-04 13:13 | 41.45717 | 13.28930 | 20626 ft | 350 kts | 286° |
| 2026-05-04 13:14 | 41.46424 | 13.25831 | 20265 ft | 348 kts | 286° |
| 2026-05-04 13:14 | 41.47128 | 13.22739 | 19896 ft | 346 kts | 286° |
| 2026-05-04 13:14 | 41.47824 | 13.19672 | 19509 ft | 345 kts | 286° |
| 2026-05-04 13:14 | 41.48517 | 13.16613 | 19068 ft | 343 kts | 285° |
| 2026-05-04 13:15 | 41.49207 | 13.13571 | 18656 ft | 341 kts | 286° |
| 2026-05-04 13:15 | 41.49893 | 13.10547 | 18203 ft | 340 kts | 286° |
| 2026-05-04 13:15 | 41.50568 | 13.07563 | 17706 ft | 339 kts | 285° |
| 2026-05-04 13:15 | 41.51251 | 13.04541 | 17205 ft | 339 kts | 285° |
| 2026-05-04 13:16 | 41.51928 | 13.01524 | 16726 ft | 339 kts | 285° |
| 2026-05-04 13:16 | 41.52607 | 12.98500 | 16238 ft | 339 kts | 285° |
| 2026-05-04 13:16 | 41.53285 | 12.95480 | 15763 ft | 339 kts | 285° |
| 2026-05-04 13:16 | 41.54149 | 12.92554 | 15295 ft | 340 kts | 297° |
| 2026-05-04 13:17 | 41.55545 | 12.90033 | 14841 ft | 344 kts | 312° |
| 2026-05-04 13:17 | 41.57289 | 12.87842 | 14388 ft | 344 kts | 314° |
| 2026-05-04 13:17 | 41.59043 | 12.85665 | 13997 ft | 343 kts | 314° |
| 2026-05-04 13:17 | 41.60785 | 12.83500 | 13576 ft | 340 kts | 314° |
| 2026-05-04 13:18 | 41.61926 | 12.82075 | 13296 ft | 338 kts | 314° |
| 2026-05-04 13:18 | 41.63637 | 12.79933 | 12878 ft | 336 kts | 314° |
| 2026-05-04 13:18 | 41.65335 | 12.77803 | 12463 ft | 333 kts | 314° |
| 2026-05-04 13:18 | 41.67021 | 12.75690 | 12052 ft | 331 kts | 314° |
| 2026-05-04 13:19 | 41.68694 | 12.73595 | 11658 ft | 328 kts | 315° |
| 2026-05-04 13:19 | 41.70361 | 12.71503 | 11257 ft | 326 kts | 315° |
| 2026-05-04 13:19 | 41.72009 | 12.69436 | 10867 ft | 324 kts | 315° |
| 2026-05-04 13:19 | 41.73653 | 12.67379 | 10481 ft | 323 kts | 315° |
| 2026-05-04 13:20 | 41.75288 | 12.65327 | 10097 ft | 320 kts | 315° |
| 2026-05-04 13:20 | 41.76888 | 12.63313 | 9690 ft | 319 kts | 315° |
| 2026-05-04 13:20 | 41.78500 | 12.61283 | 9272 ft | 316 kts | 315° |
| 2026-05-04 13:20 | 41.80082 | 12.59290 | 9152 ft | 304 kts | 315° |
| 2026-05-04 13:21 | 41.81587 | 12.57363 | 9163 ft | 295 kts | 314° |
| 2026-05-04 13:21 | 41.83010 | 12.55468 | 9162 ft | 279 kts | 313° |
| 2026-05-04 13:21 | 41.84342 | 12.53660 | 9164 ft | 264 kts | 312° |
| 2026-05-04 13:21 | 41.85598 | 12.51946 | 9164 ft | 254 kts | 312° |
| 2026-05-04 13:22 | 41.86831 | 12.50262 | 9060 ft | 252 kts | 312° |
| 2026-05-04 13:22 | 41.88043 | 12.48610 | 8917 ft | 251 kts | 312° |
| 2026-05-04 13:22 | 41.89329 | 12.47015 | 8792 ft | 252 kts | 321° |
| 2026-05-04 13:22 | 41.90837 | 12.45813 | 8664 ft | 253 kts | 335° |
| 2026-05-04 13:23 | 41.92506 | 12.45048 | 8534 ft | 254 kts | 342° |
| 2026-05-04 13:23 | 41.94195 | 12.44360 | 8408 ft | 254 kts | 342° |
| 2026-05-04 13:23 | 41.95886 | 12.43663 | 8282 ft | 254 kts | 341° |
| 2026-05-04 13:23 | 41.97574 | 12.42962 | 8156 ft | 253 kts | 342° |
| 2026-05-04 13:24 | 41.99260 | 12.42258 | 8031 ft | 253 kts | 342° |
| 2026-05-04 13:24 | 42.00943 | 12.41557 | 7904 ft | 252 kts | 342° |
| 2026-05-04 13:24 | 42.02618 | 12.40861 | 7775 ft | 252 kts | 342° |
| 2026-05-04 13:25 | 42.05964 | 12.39469 | 7531 ft | 251 kts | 342° |
| 2026-05-04 13:25 | 42.07637 | 12.38770 | 7411 ft | 251 kts | 342° |
| 2026-05-04 13:25 | 42.09280 | 12.38085 | 7284 ft | 250 kts | 342° |
| 2026-05-04 13:25 | 42.10949 | 12.37389 | 7159 ft | 251 kts | 342° |
| 2026-05-04 13:26 | 42.12621 | 12.36692 | 7038 ft | 250 kts | 341° |
| 2026-05-04 13:26 | 42.14283 | 12.35998 | 6920 ft | 249 kts | 342° |
| 2026-05-04 13:26 | 42.15864 | 12.35089 | 6723 ft | 244 kts | 322° |
| 2026-05-04 13:26 | 42.17015 | 12.33451 | 6602 ft | 240 kts | 296° |
| 2026-05-04 13:27 | 42.17535 | 12.31346 | 6236 ft | 236 kts | 270° |
| 2026-05-04 13:27 | 42.17348 | 12.29232 | 5983 ft | 228 kts | 248° |
| 2026-05-04 13:27 | 42.16867 | 12.27202 | 5714 ft | 228 kts | 248° |
| 2026-05-04 13:27 | 42.16389 | 12.25165 | 5427 ft | 227 kts | 249° |
| 2026-05-04 13:28 | 42.15908 | 12.23112 | 5156 ft | 232 kts | 248° |
| 2026-05-04 13:28 | 42.15236 | 12.21164 | 4876 ft | 226 kts | 231° |
| 2026-05-04 13:28 | 42.14189 | 12.19647 | 4608 ft | 218 kts | 214° |
| 2026-05-04 13:28 | 42.12885 | 12.18658 | 4301 ft | 213 kts | 198° |
| 2026-05-04 13:29 | 42.11474 | 12.18171 | 4017 ft | 212 kts | 191° |
| 2026-05-04 13:29 | 42.10040 | 12.17744 | 3734 ft | 211 kts | 191° |
| 2026-05-04 13:29 | 42.08604 | 12.17311 | 3442 ft | 211 kts | 191° |
| 2026-05-04 13:29 | 42.07160 | 12.16992 | 3149 ft | 211 kts | 180° |
| 2026-05-04 13:30 | 42.05712 | 12.17265 | 2850 ft | 212 kts | 163° |
| 2026-05-04 13:30 | 42.04355 | 12.17840 | 2726 ft | 201 kts | 162° |
| 2026-05-04 13:30 | 42.03041 | 12.18396 | 2624 ft | 193 kts | 162° |
| 2026-05-04 13:30 | 42.01777 | 12.18929 | 2609 ft | 188 kts | 162° |
| 2026-05-04 13:31 | 42.00538 | 12.19451 | 2624 ft | 180 kts | 162° |
| 2026-05-04 13:31 | 41.99401 | 12.19930 | 2619 ft | 163 kts | 162° |
| 2026-05-04 13:31 | 41.98362 | 12.20368 | 2613 ft | 149 kts | 163° |
| 2026-05-04 13:31 | 41.97399 | 12.20773 | 2610 ft | 142 kts | 162° |
| 2026-05-04 13:32 | 41.96460 | 12.21168 | 2537 ft | 140 kts | 163° |
| 2026-05-04 13:32 | 41.95540 | 12.21554 | 2381 ft | 139 kts | 163° |
| 2026-05-04 13:32 | 41.94605 | 12.21947 | 2223 ft | 139 kts | 163° |
| 2026-05-04 13:32 | 41.93697 | 12.22329 | 2052 ft | 138 kts | 163° |
| 2026-05-04 13:33 | 41.92786 | 12.22712 | 1882 ft | 134 kts | 163° |
| 2026-05-04 13:33 | 41.91899 | 12.23085 | 1693 ft | 133 kts | 163° |
| 2026-05-04 13:33 | 41.91019 | 12.23454 | 1519 ft | 132 kts | 163° |
| 2026-05-04 13:33 | 41.90143 | 12.23822 | 1338 ft | 133 kts | 163° |
| 2026-05-04 13:34 | 41.89265 | 12.24190 | 1157 ft | 131 kts | 163° |
| 2026-05-04 13:34 | 41.88395 | 12.24555 | 852 ft | 131 kts | 164° |
| 2026-05-04 13:34 | 41.87518 | 12.24923 | 685 ft | 131 kts | 163° |
| 2026-05-04 13:34 | 41.86640 | 12.25291 | 487 ft | 134 kts | 166° |
| 2026-05-04 13:35 | 41.85741 | 12.25668 | 313 ft | 135 kts | 164° |
| 2026-05-04 13:35 | 41.83986 | 12.26396 | 52 ft | 130 kts | 164° |
| 2026-05-04 13:35 | 41.83156 | 12.26726 | 19 ft | 110 kts | 161° |
| 2026-05-04 13:36 | 41.82596 | 12.26981 | 20 ft | 60 kts | 161° |
| 2026-05-04 13:36 | 41.82243 | 12.27121 | 14 ft | 51 kts | 170° |
| 2026-05-04 13:36 | 41.81919 | 12.27094 | 15 ft | 43 kts | 193° |
| 2026-05-04 13:36 | 41.81644 | 12.27058 | 21 ft | 37 kts | 167° |
| 2026-05-04 13:37 | 41.81409 | 12.27159 | 21 ft | 34 kts | 162° |
| 2026-05-04 13:37 | 41.81183 | 12.27258 | 16 ft | 33 kts | 162° |
| 2026-05-04 13:37 | 41.80967 | 12.27343 | 14 ft | 32 kts | 164° |
| 2026-05-04 13:37 | 41.80824 | 12.27345 | 15 ft | 30 kts | 187° |
| 2026-05-04 13:38 | 41.80634 | 12.27141 | 14 ft | 28 kts | 249° |
| 2026-05-04 13:38 | 41.80562 | 12.26895 | 15 ft | 28 kts | 249° |
| 2026-05-04 13:38 | 41.80491 | 12.26646 | 15 ft | 29 kts | 247° |
| 2026-05-04 13:38 | 41.80409 | 12.26407 | 14 ft | 28 kts | 214° |
| 2026-05-04 13:39 | 41.80228 | 12.26402 | 16 ft | 26 kts | 188° |
| 2026-05-04 13:39 | 41.80065 | 12.26320 | 18 ft | 25 kts | 201° |
| 2026-05-04 13:39 | 41.79908 | 12.26229 | 19 ft | 24 kts | 204° |
| 2026-05-04 13:39 | 41.79771 | 12.26095 | 17 ft | 25 kts | 249° |
| 2026-05-04 13:40 | 41.79830 | 12.25916 | 19 ft | 21 kts | 283° |
| 2026-05-04 13:40 | 41.79770 | 12.25756 | 16 ft | 16 kts | 215° |
| 2026-05-04 13:40 | 41.79743 | 12.25735 | 16 ft | 0 kts | 209° |
| 2026-05-04 13:41 | 41.79741 | 12.25735 | 16 ft | 2 kts | 209° |
| 2026-05-04 13:41 | 41.79730 | 12.25726 | 16 ft | 1 kts | 209° |
| 2026-05-04 13:41 | 41.79713 | 12.25709 | 17 ft | 3 kts | 236° |
| 2026-05-04 13:42 | 41.79714 | 12.25673 | 16 ft | 1 kts | 278° |
| 2026-05-04 13:42 | 41.79720 | 12.25655 | 16 ft | 2 kts | 298° |
| 2026-05-04 13:42 | 41.79726 | 12.25641 | 18 ft | 1 kts | 298° |
| 2026-05-04 13:42 | 41.79727 | 12.25638 | 18 ft | 0 kts | 298° |